Terminal Aerodrome Forecast
Issued by NWS

Home | Current Version | Previous Version | Text Only | Print | Product List | Glossary On
Versions: 1 2 3 4 5 6 7 8 9 10 11 12 13 14
000
FTUS43 KGRR 021137
TAFLAN
TAF
KLAN 021137Z 0212/0312 21008KT P6SM SCT060 SCT150
     FM021400 22015G25KT P6SM SCT060 SCT150
     FM021800 22025G35KT P6SM SCT060 SCT150
     FM030100 27030G45KT 1/2SM +TSRA OVC035CB
     FM030200 30015KT 2SM -RA BKN035
     FM030300 30007KT 4SM BR VCSH BKN050=

USA.gov is the U.S. government's official web portal to all federal, state and local government web resources and services.